AA4806 / N117HQ 7700 Squawk Report (22nd of September, 2022)

Aircraft E75S Reg No. N117HQ Age N/A
Model Emb-175 Jet engines 2 First flight 09-07
Registered 08-04-15 Rollout 09-07 Delivered 26-09-07
Construction No. 17000184 Line No. N/A Series 200LR
ADSHEX A046F2 Airline name Envoy Air Owner Republic Airways
Airfield based Indianapolis-International~IN~N First tracked N/A

Flight history for N117HQ

Route Flight No Date Playback
Detroit Metro Wayne Co (DTW) - La Guardia (LGA) AA4496 2022-12-04 17:08:00
La Guardia (LGA) - Detroit Metro Wayne Co (DTW) AA4463 2022-12-04 00:23:00
Cleveland Hopkins Intl (CLE) - La Guardia (LGA) AA4785 2022-12-03 22:50:00
John F Kennedy Intl (JFK) - Cleveland Hopkins Intl (CLE) AA4672 2022-12-03 19:08:00
Indianapolis Intl (IND) - John F Kennedy Intl (JFK) AA4797 2022-12-03 16:43:00
John F Kennedy Intl (JFK) - Indianapolis Intl (IND) AA4449 2022-11-29 22:55:00
John F Kennedy Intl (JFK) - Worcester Regional Airport (ORH) - John F Kennedy Intl (JFK) AA4440 2022-11-29 20:49:00
John F Kennedy Intl (JFK) - Logan International Airport (BOS) - John F Kennedy Intl (JFK) AA4748 2022-11-29 17:02:00
Logan International Airport (BOS) - John F Kennedy Intl (JFK) AA4302 2022-11-29 12:34:00
Indianapolis Intl (IND) - Logan International Airport (BOS) AA4342 2022-11-29 02:28:00
Ronald Reagan Washington Natl (DCA) - Indianapolis Intl (IND) AA4501 2022-11-29 00:39:00
Ronald Reagan Washington Natl (DCA) - Kansas City Intl (MCI) - Ronald Reagan Washington Natl (DCA) AA4603 2022-11-28 21:08:00
Tulsa Intl (TUL) - Ronald Reagan Washington Natl (DCA) AA4375 2022-11-28 14:15:00
Ronald Reagan Washington Natl (DCA) - Tulsa Intl (TUL) AA4374 2022-11-28 11:49:00
Ronald Reagan Washington Natl (DCA) - Manchester-Boston Regional Airport (MHT) - Ronald Reagan Washington Natl (DCA) AA4437 2022-11-28 02:47:00
La Guardia (LGA) - Ronald Reagan Washington Natl (DCA) AA4315 2022-11-27 21:35:00
La Guardia (LGA) - Toronto Pearson International (YYZ) - La Guardia (LGA) AA4441 2022-11-27 20:22:00
Eppley Airfield (OMA) - La Guardia (LGA) AA4511 2022-11-26 23:29:00
La Guardia (LGA) - Eppley Airfield (OMA) AA4512 2022-11-26 20:37:00
Piedmont Triad (GSO) - La Guardia (LGA) AA4773 2022-11-26 14:53:00
Time Lat Lon Altitude Heading Speed Vertical Rate
2022-09-22 11:26:25 GMT 44.801945 -68.820000 200 133 83
2022-09-22 11:22:50 GMT 44.881851 -68.935928 2,250 134 139 -704
2022-09-22 11:22:41 GMT 44.886551 -68.942627 2,400 134 148 -896
2022-09-22 11:22:30 GMT 44.891441 -68.949722 2,550 134 157 -832
2022-09-22 11:22:19 GMT 44.897400 -68.958237 2,700 134 159 -768
2022-09-22 11:22:10 GMT 44.902084 -68.964912 2,825 135 160 -896
2022-09-22 11:21:59 GMT 44.907761 -68.972954 2,975 135 162 -896
2022-09-22 11:21:49 GMT 44.913273 -68.980743 3,125 134 168 -768
2022-09-22 11:21:27 GMT 44.925564 -68.998764 3,300 131 187 -192
2022-09-22 11:21:14 GMT 44.933029 -69.010551 3,300 133 187 64
2022-09-22 11:21:08 GMT 44.937153 -69.016113 3,300 140 185 0
2022-09-22 11:20:57 GMT 44.944557 -69.022812 3,300 154 181 64
2022-09-22 11:20:46 GMT 44.953262 -69.028473 3,300 155 182 64
2022-09-22 11:20:30 GMT 44.965118 -69.036255 3,300 155 181 0
2022-09-22 11:20:25 GMT 44.968872 -69.038673 3,300 155 181 0
2022-09-22 11:20:15 GMT 44.976562 -69.043648 3,300 155 181 -64
2022-09-22 11:20:05 GMT 44.984310 -69.048668 3,300 155 180 64
2022-09-22 11:19:53 GMT 44.993389 -69.054565 3,300 155 180 0
2022-09-22 11:19:38 GMT 45.004715 -69.061890 3,300 155 178 -64
2022-09-22 11:19:34 GMT 45.007587 -69.063744 3,300 155 178 64
2022-09-22 11:19:11 GMT 45.025276 -69.076385 3,000 156 182
2022-09-22 11:18:20 GMT 45.072224 -69.105278 3,000 139 172
2022-09-22 11:15:06 GMT 45.111725 -68.988182 3,275 321 215 64
2022-09-22 11:13:11 GMT 45.011490 -69.009315 3,300 43 251 64
2022-09-22 11:13:10 GMT 45.010658 -69.010422 3,300 43 251 64
2022-09-22 11:12:58 GMT 45.000595 -69.023766 3,300 43 250 -64
2022-09-22 11:12:50 GMT 44.993820 -69.032661 3,300 42 250 -64
2022-09-22 11:12:39 GMT 44.984573 -69.044624 3,300 42 249 64
2022-09-22 11:12:21 GMT 44.969330 -69.064507 3,275 43 249 -64
2022-09-22 11:12:18 GMT 44.966808 -69.067894 3,275 43 249 -64
2022-09-22 11:12:09 GMT 44.958755 -69.078545 3,300 43 249 0
2022-09-22 11:11:58 GMT 44.949677 -69.090607 3,275 43 249 64
2022-09-22 11:11:46 GMT 44.939438 -69.104134 3,275 43 247 0
2022-09-22 11:11:37 GMT 44.931564 -69.114143 3,300 39 248 -128
2022-09-22 11:11:27 GMT 44.922352 -69.123428 3,300 26 249 64
2022-09-22 11:11:17 GMT 44.911411 -69.127922 3,300 5 246 -64
2022-09-22 11:11:06 GMT 44.899681 -69.127449 3,300 350 241 -64
2022-09-22 11:10:56 GMT 44.888077 -69.124146 3,275 349 239 64
2022-09-22 11:10:45 GMT 44.876358 -69.120811 3,300 349 237 -256
2022-09-22 11:10:35 GMT 44.865742 -69.117805 3,450 349 237 -1280
2022-09-22 11:10:25 GMT 44.854752 -69.114731 3,650 349 239 -1024
2022-09-22 11:10:14 GMT 44.843399 -69.111656 3,850 350 241 -1152
2022-09-22 11:10:04 GMT 44.832001 -69.108513 4,050 350 241 -1216
2022-09-22 11:09:54 GMT 44.820602 -69.105446 4,250 350 242 -1088
2022-09-22 11:09:43 GMT 44.808903 -69.102264 4,425 350 244 -1024
2022-09-22 11:09:33 GMT 44.797485 -69.099228 4,625 350 246 -1216
2022-09-22 11:09:22 GMT 44.785904 -69.096222 4,825 350 246 -1344
2022-09-22 11:09:12 GMT 44.774452 -69.093216 5,075 350 244 -1472
2022-09-22 11:09:01 GMT 44.762489 -69.090202 5,350 351 242 -1472
2022-09-22 11:08:51 GMT 44.751411 -69.087524 5,550 351 242 -1152
2022-09-22 11:08:41 GMT 44.739864 -69.084778 5,725 351 244 -1024
2022-09-22 11:08:31 GMT 44.728088 -69.082031 5,925 351 247 -1152
2022-09-22 11:08:20 GMT 44.716187 -69.079414 6,125 351 248 -1216
2022-09-22 11:08:10 GMT 44.704330 -69.076797 6,275 352 251 -512
2022-09-22 11:07:59 GMT 44.692291 -69.074181 6,300 352 254 0
2022-09-22 11:07:49 GMT 44.680344 -69.071503 6,300 351 254 0
2022-09-22 11:07:39 GMT 44.668407 -69.068901 6,300 352 252 64
2022-09-22 11:07:28 GMT 44.656445 -69.066292 6,300 352 250 -64
2022-09-22 11:07:18 GMT 44.644573 -69.063675 6,300 352 248 64
2022-09-22 11:07:07 GMT 44.632656 -69.061127 6,275 352 249 0
2022-09-22 11:06:57 GMT 44.620972 -69.058556 6,275 352 252 0
2022-09-22 11:06:47 GMT 44.608978 -69.055939 6,275 351 252 64
2022-09-22 11:06:36 GMT 44.596207 -69.053062 6,275 351 251 64
2022-09-22 11:06:26 GMT 44.585129 -69.050316 6,275 349 249 -64
2022-09-22 11:06:16 GMT 44.574047 -69.045654 6,275 334 242 -64
2022-09-22 11:06:05 GMT 44.564320 -69.034737 6,275 309 239 0
2022-09-22 11:05:55 GMT 44.559448 -69.021278 6,275 286 239 0
2022-09-22 11:05:45 GMT 44.558685 -69.005592 6,300 262 241 -128
2022-09-22 11:05:33 GMT 44.563061 -68.989319 6,300 238 240 128
2022-09-22 11:05:24 GMT 44.570572 -68.978508 6,275 217 242 -64
2022-09-22 11:05:13 GMT 44.579819 -68.969353 6,275 216 243 0
2022-09-22 11:05:02 GMT 44.590118 -68.959221 6,300 216 243 -64
2022-09-22 11:04:53 GMT 44.599140 -68.950333 6,300 215 244 64
2022-09-22 11:04:42 GMT 44.608776 -68.940819 6,300 216 244 0
2022-09-22 11:04:32 GMT 44.618225 -68.931557 6,300 216 244 0
2022-09-22 11:04:22 GMT 44.627628 -68.922264 6,275 216 243 64
2022-09-22 11:04:11 GMT 44.637405 -68.912659 6,275 216 243 64
2022-09-22 11:04:01 GMT 44.646606 -68.903503 6,275 216 244 0
2022-09-22 11:03:51 GMT 44.656349 -68.893921 6,300 216 244 0
2022-09-22 11:03:40 GMT 44.665878 -68.884537 6,300 216 243 0
2022-09-22 11:03:30 GMT 44.675766 -68.874794 6,250 216 242 512
2022-09-22 11:03:19 GMT 44.685120 -68.865517 6,100 216 239 960
2022-09-22 11:03:09 GMT 44.694244 -68.856544 5,925 216 241 1600
2022-09-22 11:02:59 GMT 44.703873 -68.847000 5,450 216 243 3520
2022-09-22 11:02:48 GMT 44.713329 -68.837654 4,900 216 244 2944
2022-09-22 11:02:38 GMT 44.723248 -68.827873 4,500 216 239 1728
2022-09-22 11:02:28 GMT 44.731888 -68.819206 4,325 216 222 448
2022-09-22 11:02:17 GMT 44.740540 -68.810509 4,150 216 202 1984
2022-09-22 11:02:07 GMT 44.748104 -68.802681 3,700 218 196 2816
2022-09-22 11:01:56 GMT 44.755463 -68.794708 3,200 218 193 3072
2022-09-22 11:01:46 GMT 44.763199 -68.787102 2,675 207 193 2048

Making use of Plane Finder data

You are free to use the raw flight data, aircraft information and images provided in this report for your own purposes provided the data is correctly attributed to Plane Finder. We ask that you please credit Plane Finder and link to planefinder.net in close proximity to the content.

Optionally one of the following logos (no smaller then 150x24px) can be used and must link to planefinder.net

Embedding the Plane Finder map

You are welcome to embed the Plane Finder playback map on your website to offer visitors a more interactive experience. We suggest using the following HTML code:

<iframe src="//planefinder.net/data/report/AA4806-N117HQ-7700-squawk-2022-09-22/map" width="800" height="600" seamless="seamless"></iframe>

Where our data comes from

Plane Finder has a global network of data feeds and antenna radars that receive data broadcast directly from aircraft. The primary technologies used are ADS-B and MLAT. We also show feeds from the FAA and a FLARM glider feed.

Click here to find out more about the Plane Finder network.

How we collect our data